Time;durP1;ratioP1;P1;durP2;ratioP2;P2;SDS_P1;SDS_P2;PMS_P1;PMS_P2;Temp;Humidity;BMP_temperature;BMP_pressure;BME280_temperature;BME280_humidity;BME280_pressure;Samples;Min_cycle;Max_cycle;Signal;HPM_P1;HPM_P2
2024/01/10 00:01:08;;;;;;;4.85;3.65;;;;;;;-1.21;55.38;99093.47;1225444;75;2915384;-65
2024/01/10 00:03:41;;;;;;;5.50;3.90;;;;;;;-1.19;56.17;99077.78;1224604;75;2917310;-64
2024/01/10 00:06:17;;;;;;;5.75;3.30;;;;;;;-1.11;55.42;99081.34;1224270;75;2926447;-66
2024/01/10 00:08:50;;;;;;;4.90;3.25;;;;;;;-1.13;55.75;99084.41;1223520;75;2918551;-66
2024/01/10 00:11:23;;;;;;;4.00;2.75;;;;;;;-1.16;58.17;99070.91;1224106;75;2924772;-66
2024/01/10 00:13:59;;;;;;;5.45;3.40;;;;;;;-1.13;56.86;99067.50;1225417;75;2933676;-65
2024/01/10 00:16:32;;;;;;;6.10;3.50;;;;;;;-1.32;56.19;99073.75;1223570;75;2926180;-65
2024/01/10 00:19:05;;;;;;;5.05;3.50;;;;;;;-1.18;56.79;99067.81;1225247;75;2924014;-67
2024/01/10 00:21:41;;;;;;;5.15;3.40;;;;;;;-1.27;nan;99076.13;1223974;75;2920051;-66
2024/01/10 00:24:14;;;;;;;5.00;3.70;;;;;;;-1.25;56.01;99063.13;1224942;75;2916666;-68
2024/01/10 00:26:46;;;;;;;5.30;3.60;;;;;;;-1.35;56.57;99063.72;1224580;75;2920393;-68
2024/01/10 00:29:19;;;;;;;4.45;3.00;;;;;;;-1.20;55.23;99076.25;1225112;75;2911603;-66
2024/01/10 00:31:53;;;;;;;4.10;2.90;;;;;;;-1.21;57.62;99069.31;1224528;75;2921162;-66
2024/01/10 00:34:26;;;;;;;5.60;3.10;;;;;;;-1.19;56.89;99058.19;1224609;75;2918995;-66
2024/01/10 00:37:02;;;;;;;4.45;3.20;;;;;;;-1.17;56.74;99064.75;1223948;75;2913944;-66
2024/01/10 00:39:34;;;;;;;4.05;2.40;;;;;;;-1.34;57.40;99071.44;1225107;75;2911543;-67
2024/01/10 00:42:08;;;;;;;5.15;3.20;;;;;;;-1.29;57.56;99068.44;1225418;75;2920090;-64
2024/01/10 00:44:41;;;;;;;4.40;2.90;;;;;;;-1.22;58.25;99081.19;1224118;75;2923301;-66
2024/01/10 00:47:15;;;;;;;4.35;3.10;;;;;;;-1.24;58.10;99080.00;1224362;75;2921606;-64
2024/01/10 00:49:47;;;;;;;3.85;2.85;;;;;;;-1.24;58.34;99080.78;1224773;75;2927273;-67
2024/01/10 00:52:23;;;;;;;5.50;2.90;;;;;;;-1.27;57.82;99084.19;1225581;75;2919128;-67
2024/01/10 00:54:56;;;;;;;4.60;3.00;;;;;;;-1.23;58.44;99087.69;1224890;75;2943487;-65
2024/01/10 00:57:28;;;;;;;4.35;3.45;;;;;;;-1.30;57.93;99093.75;1222235;75;2944646;-67
2024/01/10 01:00:03;;;;;;;6.80;4.05;;;;;;;-1.35;57.64;99088.69;1224395;75;2916672;-66
2024/01/10 01:02:36;;;;;;;5.00;3.25;;;;;;;-1.33;57.78;99086.41;1224835;75;2926422;-66
2024/01/10 01:05:10;;;;;;;5.55;3.35;;;;;;;-1.24;58.19;99086.16;1225316;75;2915961;-68
2024/01/10 01:07:45;;;;;;;4.15;3.00;;;;;;;-1.41;56.85;99095.50;1224432;75;2918657;-66
2024/01/10 01:10:18;;;;;;;4.80;3.20;;;;;;;-1.32;58.43;99090.66;1224849;75;2915973;-67
2024/01/10 01:12:50;;;;;;;5.05;3.20;;;;;;;-1.29;57.78;99089.91;1224475;75;2917571;-66
2024/01/10 01:15:24;;;;;;;4.65;3.00;;;;;;;-1.29;59.28;99091.84;1224460;75;2922856;-66
2024/01/10 01:17:56;;;;;;;4.60;3.20;;;;;;;-1.29;59.21;99091.84;1223934;75;2912389;-68
2024/01/10 01:20:29;;;;;;;4.60;3.05;;;;;;;-1.24;59.62;99090.75;1223691;75;2925076;-67
2024/01/10 01:23:05;;;;;;;4.95;3.20;;;;;;;-1.26;59.02;99090.34;1225156;75;2918064;-67
2024/01/10 01:25:37;;;;;;;3.95;2.65;;;;;;;-1.27;58.79;99089.56;1224788;75;2921519;-65
2024/01/10 01:28:11;;;;;;;4.15;2.65;;;;;;;-1.27;58.10;99086.09;1223108;75;2937623;-67
2024/01/10 01:30:44;;;;;;;5.50;3.30;;;;;;;-1.33;58.95;99089.09;1224719;67;2924216;-67
2024/01/10 01:33:16;;;;;;;4.55;3.35;;;;;;;-1.35;59.36;99087.91;1225170;75;2920698;-65
2024/01/10 01:35:49;;;;;;;6.45;4.30;;;;;;;-1.53;58.00;99077.66;1225153;75;2921075;-67
2024/01/10 01:38:25;;;;;;;4.70;3.35;;;;;;;-1.31;58.21;99075.31;1224575;75;2920291;-66
2024/01/10 01:40:58;;;;;;;4.45;2.95;;;;;;;-1.29;59.71;99079.16;1225222;75;2919106;-67
2024/01/10 01:43:31;;;;;;;4.15;2.70;;;;;;;-1.26;60.29;99079.59;1224934;75;2921328;-65
2024/01/10 01:46:04;;;;;;;4.50;3.15;;;;;;;-1.28;59.83;99088.00;1225262;75;2919930;-66
2024/01/10 01:48:37;;;;;;;3.65;2.55;;;;;;;-1.36;59.74;99080.97;1224822;75;2925452;-66
2024/01/10 01:51:11;;;;;;;4.35;2.70;;;;;;;-1.44;58.61;99076.63;1224338;75;2922785;-67
2024/01/10 01:53:51;;;;;;;4.40;3.40;;;;;;;-1.53;59.82;99072.28;1224214;75;2922896;-68
2024/01/10 01:56:24;;;;;;;5.25;3.80;;;;;;;-1.55;59.12;99079.16;1224172;75;2921048;-67
2024/01/10 01:58:58;;;;;;;5.55;3.80;;;;;;;-1.54;59.91;99080.69;1225058;75;2917262;-64
2024/01/10 02:01:31;;;;;;;5.80;4.25;;;;;;;-1.53;59.47;99082.25;1224567;75;2919549;-67
2024/01/10 02:04:06;;;;;;;7.55;4.95;;;;;;;-1.75;59.43;99081.91;1224610;75;2913292;-65
2024/01/10 02:06:39;;;;;;;8.65;5.70;;;;;;;-1.64;59.20;99074.00;1223632;75;2920462;-67
2024/01/10 02:09:15;;;;;;;5.95;4.40;;;;;;;-1.55;59.02;99077.22;1224465;75;2922007;-66
2024/01/10 02:11:48;;;;;;;5.80;3.80;;;;;;;-1.43;59.84;99078.19;1224995;75;2926515;-65
2024/01/10 02:14:21;;;;;;;5.45;3.60;;;;;;;-1.54;59.84;99075.31;1224257;75;2921262;-66
2024/01/10 02:16:54;;;;;;;6.35;4.10;;;;;;;-1.80;60.53;99073.38;1223811;75;2922190;-66
2024/01/10 02:19:30;;;;;;;8.05;5.00;;;;;;;-1.93;59.54;99076.22;1223880;75;2927695;-65
2024/01/10 02:22:04;;;;;;;7.25;4.70;;;;;;;-1.95;60.07;99072.34;1224874;75;2928911;-66
2024/01/10 02:24:39;;;;;;;7.85;5.40;;;;;;;-1.97;60.70;99071.94;1224302;75;2920937;-66
2024/01/10 02:27:15;;;;;;;7.15;4.85;;;;;;;-2.00;60.72;99076.09;1224328;75;2928188;-66
2024/01/10 02:29:48;;;;;;;7.10;4.60;;;;;;;-1.94;60.43;99074.66;1224011;75;2943369;-66
2024/01/10 02:32:22;;;;;;;6.70;4.75;;;;;;;-1.99;60.86;99071.50;1224589;75;2931723;-66
2024/01/10 02:34:52;;;;;;;6.50;4.80;;;;;;;-2.07;61.30;99067.91;1225150;75;2919496;-67
2024/01/10 02:37:25;;;;;;;6.70;4.10;;;;;;;-2.06;61.73;99074.06;1224440;75;2922969;-65
2024/01/10 02:39:58;;;;;;;6.25;4.45;;;;;;;-2.24;62.79;99071.81;1224699;75;2916227;-65
2024/01/10 02:42:36;;;;;;;6.45;4.50;;;;;;;-2.16;62.89;99065.47;1224135;75;2925757;-67
2024/01/10 02:45:10;;;;;;;5.80;4.20;;;;;;;-2.38;62.23;99072.34;1225253;75;2916005;-66
2024/01/10 02:47:43;;;;;;;6.65;4.35;;;;;;;-2.47;62.46;99071.00;1224828;75;2917996;-66
2024/01/10 02:50:16;;;;;;;6.25;3.95;;;;;;;-2.49;62.49;99070.56;1225118;75;2914263;-65
2024/01/10 02:52:49;;;;;;;7.20;4.70;;;;;;;-2.65;63.51;99067.94;1224561;75;2923480;-66
2024/01/10 02:55:22;;;;;;;6.25;3.95;;;;;;;-2.55;63.03;99069.28;1224216;75;2927735;-65
2024/01/10 02:57:57;;;;;;;8.70;3.80;;;;;;;-2.65;63.87;99060.69;1224263;75;2925204;-67
2024/01/10 03:00:30;;;;;;;5.80;3.45;;;;;;;-2.62;64.17;99056.53;1224830;75;2928371;-66
2024/01/10 03:03:03;;;;;;;5.45;3.50;;;;;;;-2.65;64.41;99065.28;1224376;75;2913594;-66
2024/01/10 03:05:35;;;;;;;4.55;3.50;;;;;;;-2.74;65.57;99059.34;1224795;83;2914524;-68
2024/01/10 03:08:09;;;;;;;6.10;3.75;;;;;;;-2.81;66.82;99047.34;1224227;75;2911682;-67
2024/01/10 03:10:42;;;;;;;5.60;3.95;;;;;;;-3.03;67.52;99051.50;1223864;75;2923440;-68
2024/01/10 03:13:18;;;;;;;6.15;3.95;;;;;;;-3.02;68.55;99047.69;1224498;75;2921773;-66
2024/01/10 03:15:50;;;;;;;5.20;3.85;;;;;;;-2.99;68.74;99040.84;1224280;75;2919541;-67
2024/01/10 03:18:23;;;;;;;5.30;3.55;;;;;;;-3.03;68.72;99045.34;1220691;75;3066000;-67
2024/01/10 03:20:56;;;;;;;5.70;3.90;;;;;;;-3.16;69.29;99038.56;1222877;75;3029638;-67
2024/01/10 03:23:29;;;;;;;4.60;3.25;;;;;;;-3.13;70.22;99046.66;1224334;75;2917431;-67
2024/01/10 03:26:02;;;;;;;5.80;3.55;;;;;;;-3.18;70.54;99043.50;1224430;75;2925285;-65
2024/01/10 03:28:37;;;;;;;5.80;3.50;;;;;;;-3.28;71.33;99034.09;1224573;75;2920711;-66
2024/01/10 03:31:11;;;;;;;4.65;2.95;;;;;;;-3.29;71.69;99040.59;1224485;75;2935621;-65
2024/01/10 03:33:43;;;;;;;5.00;3.25;;;;;;;-3.42;71.54;99045.25;1224580;75;2922890;-67
2024/01/10 03:36:19;;;;;;;5.10;3.35;;;;;;;-3.50;72.49;99038.97;1224353;75;2916181;-65
2024/01/10 03:38:52;;;;;;;5.40;3.60;;;;;;;-3.57;72.62;99041.47;1223938;75;2924759;-66
2024/01/10 03:41:25;;;;;;;6.35;4.00;;;;;;;-3.71;73.37;99033.88;1225347;75;2918841;-66
2024/01/10 03:44:00;;;;;;;6.10;4.15;;;;;;;-3.77;73.44;99032.59;1224522;75;2916548;-68
2024/01/10 03:46:33;;;;;;;6.00;3.75;;;;;;;-3.71;73.91;99028.53;1224197;75;2926883;-68
2024/01/10 03:49:06;;;;;;;5.50;3.80;;;;;;;-3.98;74.51;99030.19;1224818;75;2922226;-67
2024/01/10 03:51:37;;;;;;;5.65;3.80;;;;;;;-3.86;75.04;99038.13;1224719;75;2920688;-67
2024/01/10 03:54:10;;;;;;;6.55;4.40;;;;;;;-3.87;75.05;99035.81;1223563;75;2925225;-66
2024/01/10 03:56:43;;;;;;;5.15;4.15;;;;;;;-3.95;75.60;99031.38;1223764;75;2922106;-67
2024/01/10 03:59:18;;;;;;;6.45;4.65;;;;;;;-3.99;75.12;99034.00;1225158;75;2913562;-66
2024/01/10 04:01:51;;;;;;;5.40;3.80;;;;;;;-4.07;76.53;99032.25;1224656;75;2921717;-67
2024/01/10 04:04:24;;;;;;;5.00;3.50;;;;;;;-4.08;76.35;99030.69;1223918;75;2922509;-65
2024/01/10 04:06:57;;;;;;;6.10;4.30;;;;;;;-4.17;78.35;99022.81;1223393;75;2915149;-66
2024/01/10 04:09:30;;;;;;;7.90;4.50;;;;;;;-4.20;78.92;99033.44;1224493;75;2918608;-67
2024/01/10 04:12:03;;;;;;;6.10;3.80;;;;;;;-4.09;78.12;99035.28;1223490;75;2936965;-66
2024/01/10 04:14:40;;;;;;;5.55;4.00;;;;;;;-4.17;78.94;99043.44;1224452;75;2917735;-67
2024/01/10 04:17:13;;;;;;;6.15;4.20;;;;;;;-4.16;78.56;99042.31;1223782;75;2930392;-65
2024/01/10 04:19:46;;;;;;;5.00;3.60;;;;;;;-4.19;78.46;99046.44;1224798;75;2914656;-66
2024/01/10 04:22:18;;;;;;;5.90;4.00;;;;;;;-4.25;79.38;99042.50;1224410;75;2928194;-68
2024/01/10 04:24:51;;;;;;;5.55;3.90;;;;;;;-4.23;78.74;99045.59;1223847;75;2922523;-65
2024/01/10 04:27:24;;;;;;;5.35;3.95;;;;;;;-4.28;79.73;99049.31;1224255;75;2919119;-67
2024/01/10 04:30:00;;;;;;;6.05;4.30;;;;;;;-4.33;81.22;99051.44;1223871;75;2920074;-66
2024/01/10 04:32:32;;;;;;;5.45;4.05;;;;;;;-4.36;81.01;99055.56;1224153;75;2919187;-66
2024/01/10 04:35:06;;;;;;;5.40;4.00;;;;;;;-4.38;81.88;99051.69;1224368;75;2923342;-67
2024/01/10 04:37:38;;;;;;;5.40;4.05;;;;;;;-4.39;82.31;99048.22;1223298;75;2916646;-67
2024/01/10 04:40:13;;;;;;;5.80;3.90;;;;;;;-4.54;82.15;99051.66;1223623;75;2925414;-65
2024/01/10 04:42:46;;;;;;;5.00;4.00;;;;;;;-4.50;82.97;99050.63;1224433;75;2918178;-65
2024/01/10 04:45:21;;;;;;;5.40;3.95;;;;;;;-4.81;85.75;99053.97;1223179;75;2919485;-66
2024/01/10 04:47:54;;;;;;;8.55;5.30;;;;;;;-4.94;87.86;99058.53;1223287;75;2929977;-67
2024/01/10 04:50:27;;;;;;;8.40;5.45;;;;;;;-4.82;88.83;99056.97;1224071;75;2921513;-65
2024/01/10 04:53:00;;;;;;;5.95;4.90;;;;;;;-4.72;86.79;99054.59;1223666;75;2924487;-67
2024/01/10 04:55:32;;;;;;;6.80;4.20;;;;;;;-4.72;86.88;99064.50;1224532;75;2914795;-65
2024/01/10 04:58:05;;;;;;;10.90;4.60;;;;;;;-4.73;86.21;99061.06;1224749;75;2926390;-66
2024/01/10 05:00:41;;;;;;;7.10;4.55;;;;;;;-4.88;88.63;99059.09;1224268;75;2918739;-67
2024/01/10 05:03:14;;;;;;;7.00;4.80;;;;;;;-4.89;88.50;99067.44;1223899;75;2917346;-65
2024/01/10 05:05:47;;;;;;;8.40;5.40;;;;;;;-4.79;88.58;99066.97;1224475;75;2923719;-66
2024/01/10 05:08:20;;;;;;;6.45;4.35;;;;;;;-4.82;88.22;99073.00;1223539;75;2925102;-65
2024/01/10 05:10:55;;;;;;;8.50;4.90;;;;;;;-5.05;91.30;99078.03;1224667;75;2920804;-65
2024/01/10 05:13:28;;;;;;;7.65;5.05;;;;;;;-4.98;91.20;99063.03;1225403;75;2918662;-65
2024/01/10 05:16:04;;;;;;;8.25;4.80;;;;;;;-4.89;88.98;99070.13;1224446;75;2922926;-64
2024/01/10 05:18:36;;;;;;;8.30;4.75;;;;;;;-5.04;90.44;99075.03;1223492;75;2937489;-65
2024/01/10 05:21:09;;;;;;;7.00;4.30;;;;;;;-4.94;90.51;99074.56;1223727;75;2936926;-65
2024/01/10 05:23:42;;;;;;;7.65;3.75;;;;;;;-4.92;89.98;99080.34;1223611;75;2927977;-66
2024/01/10 05:26:12;;;;;;;8.45;4.85;;;;;;;-4.96;93.19;99076.03;1223898;75;2929879;-67
2024/01/10 05:28:45;;;;;;;7.60;4.70;;;;;;;-5.01;90.91;99073.59;1222759;75;2923446;-65
2024/01/10 05:31:21;;;;;;;8.30;5.45;;;;;;;-4.96;91.30;99076.78;1220927;75;2932770;-67
2024/01/10 05:33:53;;;;;;;6.85;4.70;;;;;;;-5.00;92.22;99078.59;1223369;75;2919049;-65
2024/01/10 05:36:26;;;;;;;6.20;4.25;;;;;;;-5.03;92.18;99075.81;1223811;75;2926659;-64
2024/01/10 05:38:59;;;;;;;7.80;5.25;;;;;;;-5.09;93.77;99071.84;1223475;75;2936713;-67
2024/01/10 05:41:32;;;;;;;10.80;5.00;;;;;;;-5.09;93.98;99079.84;1223310;75;2924334;-65
2024/01/10 05:44:05;;;;;;;7.10;4.90;;;;;;;-5.08;93.18;99089.41;1223634;67;2921169;-66
2024/01/10 05:46:40;;;;;;;9.20;5.25;;;;;;;-5.09;93.34;99085.94;1223760;75;2928310;-66
2024/01/10 05:49:14;;;;;;;8.45;5.30;;;;;;;-5.14;93.59;99089.63;1224244;75;2941734;-64
2024/01/10 05:51:47;;;;;;;7.75;5.10;;;;;;;-5.14;94.73;99094.97;1223421;75;2922151;-65
2024/01/10 05:54:20;;;;;;;7.95;5.40;;;;;;;-5.16;94.33;99086.50;1223927;75;2930024;-65
2024/01/10 05:56:53;;;;;;;9.35;5.85;;;;;;;-5.15;94.93;99092.63;1223280;75;2855042;-67
2024/01/10 05:59:26;;;;;;;7.65;5.40;;;;;;;-5.18;95.64;99094.06;1224042;75;2916932;-66
2024/01/10 06:02:06;;;;;;;7.55;4.85;;;;;;;-5.22;96.02;99093.19;1224518;75;2918190;-68
2024/01/10 06:04:39;;;;;;;7.45;4.75;;;;;;;-5.22;97.01;99098.53;1224527;75;2921432;-65
2024/01/10 06:07:11;;;;;;;8.80;5.00;;;;;;;-5.29;96.65;99098.31;1223157;75;2921210;-65
2024/01/10 06:09:45;;;;;;;6.55;4.80;;;;;;;-5.30;96.94;99102.09;1221498;75;2928609;-67
2024/01/10 06:12:20;;;;;;;7.40;4.90;;;;;;;-5.36;97.37;99098.88;1224245;75;2920973;-66
2024/01/10 06:14:57;;;;;;;8.90;5.35;;;;;;;-5.34;97.13;99106.53;1223811;75;2923243;-68
2024/01/10 06:17:32;;;;;;;8.90;5.60;;;;;;;-5.35;98.38;99103.09;1222748;75;2946880;-66
2024/01/10 06:20:06;;;;;;;7.75;5.35;;;;;;;-5.38;98.28;99101.09;1224509;75;2918191;-66
2024/01/10 06:22:39;;;;;;;8.30;5.35;;;;;;;-5.35;98.18;99105.75;1224304;75;2923177;-67
2024/01/10 06:25:12;;;;;;;8.20;5.30;;;;;;;-5.35;98.35;99102.31;1223019;75;2929359;-65
2024/01/10 06:27:45;;;;;;;9.00;5.45;;;;;;;-5.41;100.00;99108.97;1223724;75;2922514;-67
2024/01/10 06:30:18;;;;;;;9.80;5.75;;;;;;;-5.40;99.05;99102.53;1224013;75;2925190;-69
2024/01/10 06:32:55;;;;;;;8.65;5.55;;;;;;;-5.45;98.90;99110.78;1222623;75;2935936;-66
2024/01/10 06:35:37;;;;;;;10.10;6.05;;;;;;;-5.42;99.31;99118.09;1224834;75;2924024;-66
2024/01/10 06:38:09;;;;;;;11.20;6.20;;;;;;;-5.57;100.00;99119.53;1222881;75;2927430;-65
2024/01/10 06:40:44;;;;;;;9.25;6.20;;;;;;;-5.55;100.00;99125.31;1223069;75;2931829;-65
2024/01/10 06:43:17;;;;;;;10.15;6.30;;;;;;;-5.48;99.95;99122.88;1222174;75;2924862;-66
2024/01/10 06:45:50;;;;;;;13.20;8.65;;;;;;;-5.56;99.89;99131.75;1222544;75;2933004;-67
2024/01/10 06:48:27;;;;;;;13.60;8.70;;;;;;;-5.52;100.00;99132.66;1222706;75;2917962;-65
2024/01/10 06:51:00;;;;;;;14.35;8.85;;;;;;;-5.50;98.64;99133.09;1223787;75;2923714;-67
2024/01/10 06:53:33;;;;;;;10.25;7.55;;;;;;;-5.45;98.80;99137.44;1223502;75;2925846;-66
2024/01/10 06:56:06;;;;;;;9.10;6.85;;;;;;;-5.46;98.47;99138.53;1223693;75;2921665;-65
2024/01/10 06:58:40;;;;;;;10.75;6.40;;;;;;;-5.38;98.23;99135.00;1223416;75;2925014;-65
2024/01/10 07:01:17;;;;;;;10.50;7.10;;;;;;;-5.40;97.81;99140.66;1224050;75;2917645;-64
2024/01/10 07:03:55;;;;;;;10.00;6.00;;;;;;;-5.47;98.15;99139.66;1222559;75;2956868;-64
2024/01/10 07:06:28;;;;;;;9.80;6.10;;;;;;;-5.46;97.21;99141.22;1224590;75;2926643;-65
2024/01/10 07:09:05;;;;;;;9.55;5.95;;;;;;;-5.43;97.37;99137.91;1224172;75;2931120;-67
2024/01/10 07:11:40;;;;;;;9.45;6.40;;;;;;;-5.55;100.00;99141.34;1224246;75;2922208;-64
2024/01/10 07:14:13;;;;;;;10.85;6.15;;;;;;;-5.36;97.62;99151.47;1223749;75;2933111;-66
2024/01/10 07:16:49;;;;;;;8.95;5.75;;;;;;;-5.29;96.66;99149.03;1223851;75;2920451;-67
2024/01/10 07:19:25;;;;;;;8.90;5.20;;;;;;;-5.21;96.26;99158.81;1223222;75;2928008;-66
2024/01/10 07:21:58;;;;;;;8.55;5.40;;;;;;;-5.19;96.25;99158.50;1223531;75;2926475;-65
2024/01/10 07:24:30;;;;;;;8.70;5.00;;;;;;;-5.11;96.03;99160.25;1222342;75;2925981;-67
2024/01/10 07:27:06;;;;;;;8.45;5.05;;;;;;;-4.98;95.29;99159.16;1222881;75;2928187;-65
2024/01/10 07:29:39;;;;;;;7.90;5.20;;;;;;;-4.94;94.50;99161.94;1221397;75;2922796;-68
2024/01/10 07:32:13;;;;;;;11.45;5.70;;;;;;;-4.90;94.42;99154.81;1223756;75;2924952;-65
2024/01/10 07:34:48;;;;;;;9.35;6.15;;;;;;;-4.71;92.46;99157.69;1223684;75;2926307;-66
2024/01/10 07:37:22;;;;;;;12.75;7.95;;;;;;;-4.70;91.84;99158.44;1221707;75;2924226;-66
2024/01/10 07:39:57;;;;;;;11.15;7.35;;;;;;;-4.60;91.11;99155.31;1224087;75;2946535;-67
2024/01/10 07:42:31;;;;;;;11.05;7.10;;;;;;;-4.55;91.34;99156.97;1223164;75;2922366;-67
2024/01/10 07:45:04;;;;;;;13.90;7.90;;;;;;;-4.38;91.78;99158.59;1222316;75;2924866;-67
2024/01/10 07:47:38;;;;;;;14.35;8.60;;;;;;;-4.35;91.03;99161.38;1223628;75;2921952;-64
2024/01/10 07:50:15;;;;;;;14.30;8.45;;;;;;;-4.10;89.50;99169.31;1223455;75;2922566;-67
2024/01/10 07:52:49;;;;;;;11.65;8.25;;;;;;;-3.82;87.56;99157.81;1223411;75;2922318;-67
2024/01/10 07:55:22;;;;;;;10.00;7.15;;;;;;;-2.69;82.12;99166.31;1223418;75;2924768;-66
2024/01/10 07:57:54;;;;;;;9.60;7.30;;;;;;;-1.77;77.44;99163.91;1223026;75;2943705;-65
2024/01/10 08:00:27;;;;;;;10.35;7.10;;;;;;;-0.65;73.04;99169.94;1223719;75;2922399;-64
2024/01/10 08:03:01;;;;;;;9.65;7.05;;;;;;;-0.13;70.83;99162.94;1223578;75;2922814;-65
2024/01/10 08:05:36;;;;;;;10.25;6.45;;;;;;;0.72;67.23;99164.16;1219643;75;2923336;-66
2024/01/10 08:08:09;;;;;;;8.75;6.20;;;;;;;0.30;67.44;99162.63;1223358;75;2920843;-66
2024/01/10 08:10:43;;;;;;;13.05;8.90;;;;;;;-0.11;68.21;99165.25;1222163;75;2934046;-64
2024/01/10 10:36:11;;;;;;;17.60;11.05;;;;;;;10.30;38.06;99112.78;1251574;75;2804897;-62
2024/01/10 10:38:44;;;;;;;15.50;10.60;;;;;;;7.99;39.68;99115.56;1223673;75;2926176;-64
2024/01/10 10:41:18;;;;;;;16.90;10.85;;;;;;;7.01;40.92;99118.59;1224439;75;2931427;-64
2024/01/10 10:43:53;;;;;;;15.05;9.70;;;;;;;7.58;40.98;99117.53;1224929;75;2925331;-66
2024/01/10 10:46:30;;;;;;;16.70;9.20;;;;;;;8.88;40.84;99105.34;1225236;75;2931903;-66
2024/01/10 10:49:09;;;;;;;15.00;9.95;;;;;;;8.89;40.81;99106.09;1223181;75;2942990;-65
2024/01/10 10:51:45;;;;;;;18.05;11.10;;;;;;;9.28;41.37;99105.06;1224530;75;2927190;-63
2024/01/10 10:54:22;;;;;;;15.25;9.80;;;;;;;11.60;38.83;99109.28;1224895;75;2921280;-67
2024/01/10 10:56:57;;;;;;;18.40;10.70;;;;;;;10.39;40.31;99098.41;1224573;75;2880062;-65
2024/01/10 10:59:32;;;;;;;15.15;9.70;;;;;;;10.55;38.85;99097.53;1221699;75;2917894;-66
2024/01/10 11:02:05;;;;;;;18.00;10.60;;;;;;;10.24;38.55;99090.59;1224503;75;2922067;-64
2024/01/10 11:04:39;;;;;;;13.90;8.55;;;;;;;11.88;36.61;99089.06;1225456;75;2920299;-65
2024/01/10 11:07:15;;;;;;;11.55;8.15;;;;;;;12.86;35.38;99081.25;1223060;75;2924701;-67
2024/01/10 11:09:52;;;;;;;14.60;8.70;;;;;;;11.13;36.38;99088.19;1222450;75;2944451;-64
2024/01/10 11:12:47;;;;;;;13.00;8.60;;;;;;;12.40;35.69;99078.44;1218425;75;3103224;-67
2024/01/10 11:15:41;;;;;;;12.95;8.60;;;;;;;10.40;36.91;99081.56;1225213;75;2925927;-66
2024/01/10 11:18:33;;;;;;;12.45;8.30;;;;;;;10.58;37.54;99077.47;1224607;75;2922943;-66
2024/01/10 11:21:27;;;;;;;11.55;8.20;;;;;;;9.91;37.44;99070.13;1224300;75;2952349;-65
2024/01/10 11:24:05;;;;;;;14.20;9.80;;;;;;;10.95;36.93;99058.66;1225039;75;2937768;-66
2024/01/10 11:26:39;;;;;;;22.10;13.00;;;;;;;10.01;38.22;99061.63;1225045;75;2924246;-66
2024/01/10 11:29:13;;;;;;;20.95;14.55;;;;;;;11.72;36.10;99059.81;1225661;75;2916376;-66
2024/01/10 11:31:55;;;;;;;14.45;9.60;;;;;;;9.58;38.50;99057.41;1225030;75;2926729;-66
2024/01/10 11:34:29;;;;;;;12.30;9.05;;;;;;;9.57;37.81;99049.63;1225624;75;2922208;-67
2024/01/10 11:37:17;;;;;;;14.90;10.05;;;;;;;7.36;40.15;99049.09;1224870;75;2923052;-66
2024/01/10 11:39:54;;;;;;;13.95;9.90;;;;;;;9.63;37.74;99047.91;1224839;75;2920494;-64
2024/01/10 11:42:43;;;;;;;16.50;10.55;;;;;;;9.59;38.77;99042.53;1224532;75;2926832;-65
2024/01/10 11:45:39;;;;;;;15.05;9.45;;;;;;;8.58;38.60;99037.44;1221078;75;2995670;-65
2024/01/10 11:48:12;;;;;;;14.70;10.15;;;;;;;9.14;39.27;99034.44;1223638;75;2925731;-63
2024/01/10 11:50:45;;;;;;;12.60;8.75;;;;;;;11.11;37.21;99033.06;1223737;75;2928249;-67
2024/01/10 11:53:42;;;;;;;16.00;10.05;;;;;;;10.53;36.63;99032.25;1224491;75;2924988;-64
2024/01/10 11:56:18;;;;;;;17.20;10.40;;;;;;;9.63;37.65;99031.50;1222855;75;2923092;-68
2024/01/10 11:58:58;;;;;;;14.00;9.95;;;;;;;12.98;34.90;99025.38;1219193;75;3026263;-64
2024/01/10 12:01:32;;;;;;;23.10;10.10;;;;;;;11.82;33.90;99035.16;1224558;75;2918071;-65
2024/01/10 12:04:06;;;;;;;17.85;10.60;;;;;;;12.53;33.57;99028.84;1223878;75;2922966;-66
2024/01/10 12:06:40;;;;;;;13.40;8.85;;;;;;;15.17;31.30;99017.09;1223954;75;2924631;-64
2024/01/10 12:09:14;;;;;;;12.90;9.25;;;;;;;15.16;30.21;99019.09;1222513;75;2920168;-68
2024/01/10 12:11:49;;;;;;;12.35;8.80;;;;;;;13.17;31.55;99017.13;1223591;75;2918135;-65
2024/01/10 12:14:23;;;;;;;12.40;7.80;;;;;;;15.28;30.30;99014.56;1221474;75;2916775;-64
2024/01/10 12:16:56;;;;;;;14.40;8.90;;;;;;;14.96;29.72;99002.41;1222594;75;2933671;-65
2024/01/10 12:19:29;;;;;;;10.50;7.20;;;;;;;17.24;29.44;99004.72;1224040;75;2921643;-64
2024/01/10 12:22:02;;;;;;;12.70;8.20;;;;;;;15.16;30.22;98993.53;1222161;75;2936496;-66
2024/01/10 12:24:35;;;;;;;12.10;7.20;;;;;;;15.38;29.71;98999.44;1223318;75;2921989;-66
2024/01/10 12:27:10;;;;;;;10.50;7.15;;;;;;;17.55;28.37;98989.41;1222573;75;2939787;-65
2024/01/10 12:29:43;;;;;;;10.80;6.45;;;;;;;18.80;27.40;98986.13;1221987;75;2920914;-67
2024/01/10 12:32:16;;;;;;;11.60;8.50;;;;;;;17.33;28.20;98987.97;1222495;75;2931608;-65
2024/01/10 12:34:49;;;;;;;12.20;7.35;;;;;;;16.89;28.51;98980.75;1223093;75;2924960;-65
2024/01/10 12:37:22;;;;;;;10.75;6.65;;;;;;;18.63;27.18;98975.72;1223468;75;2918746;-65
2024/01/10 12:39:57;;;;;;;9.90;6.55;;;;;;;18.07;26.13;98967.88;1223163;75;2920511;-65
2024/01/10 12:42:33;;;;;;;8.15;5.60;;;;;;;19.78;25.88;98959.50;1223309;75;2918968;-64
2024/01/10 12:45:06;;;;;;;9.85;5.95;;;;;;;18.77;25.82;98960.16;1223663;75;2924193;-66
2024/01/10 12:47:39;;;;;;;11.55;6.20;;;;;;;20.75;25.95;98953.13;1221367;75;2932479;-68
2024/01/10 12:50:13;;;;;;;9.85;6.15;;;;;;;19.50;26.21;98956.72;1224088;75;2920106;-65
2024/01/10 12:52:46;;;;;;;7.95;5.70;;;;;;;20.69;25.23;98946.84;1223784;75;2920740;-67
2024/01/10 12:55:20;;;;;;;6.70;4.70;;;;;;;19.61;24.75;98944.84;1224351;75;2918849;-66
2024/01/10 12:57:59;;;;;;;11.00;7.00;;;;;;;17.24;26.88;98939.09;1223443;75;2916203;-65
2024/01/10 13:00:33;;;;;;;7.50;5.50;;;;;;;20.58;24.88;98941.31;1224440;75;2915689;-64
2024/01/10 13:03:07;;;;;;;7.55;5.00;;;;;;;20.20;25.29;98938.94;1223797;75;2920607;-69
2024/01/10 13:05:40;;;;;;;8.80;6.10;;;;;;;18.93;27.22;98933.72;1224244;75;2916730;-65
2024/01/10 13:08:13;;;;;;;9.00;5.10;;;;;;;17.96;26.97;98937.34;1223447;75;2920247;-62
2024/01/10 13:10:47;;;;;;;8.45;5.95;;;;;;;15.74;29.03;98939.56;1223196;75;2930751;-66
2024/01/10 13:13:24;;;;;;;7.60;5.60;;;;;;;16.14;29.36;98938.88;1223144;75;2922081;-66
2024/01/10 13:15:57;;;;;;;7.30;4.50;;;;;;;16.00;29.19;98930.63;1221758;75;2925030;-65
2024/01/10 13:18:29;;;;;;;4.60;3.80;;;;;;;14.94;29.78;98941.50;1222650;75;2917542;-66
2024/01/10 13:21:02;;;;;;;10.25;5.90;;;;;;;11.83;33.21;98932.44;1224018;75;2931273;-64
2024/01/10 13:23:36;;;;;;;9.40;5.70;;;;;;;14.41;30.84;98920.94;1223634;75;2919961;-65
2024/01/10 13:26:11;;;;;;;6.75;4.85;;;;;;;15.07;30.31;98930.94;1223650;75;2937286;-64
2024/01/10 13:28:48;;;;;;;6.80;3.80;;;;;;;15.19;29.31;98926.38;1222742;75;2921326;-67
2024/01/10 13:31:21;;;;;;;6.40;4.10;;;;;;;15.01;29.68;98922.56;1223386;75;2920008;-64
2024/01/10 13:33:54;;;;;;;6.85;4.45;;;;;;;12.19;32.26;98922.78;1223362;75;2927464;-66
2024/01/10 13:36:27;;;;;;;7.60;4.75;;;;;;;11.98;33.39;98916.97;1224119;75;2924167;-65
2024/01/10 13:39:00;;;;;;;6.80;4.45;;;;;;;12.40;33.46;98923.88;1223342;75;2926660;-66
2024/01/10 13:41:33;;;;;;;6.90;5.10;;;;;;;11.60;34.46;98922.75;1223639;75;2923888;-66
2024/01/10 13:44:08;;;;;;;7.90;5.05;;;;;;;11.39;34.16;98927.09;1224288;75;2933830;-64
2024/01/10 13:46:42;;;;;;;8.30;5.30;;;;;;;12.47;34.00;98927.09;1222889;75;2916649;-63
2024/01/10 13:49:15;;;;;;;8.20;5.75;;;;;;;12.00;33.73;98927.47;1223309;75;2922311;-65
2024/01/10 13:51:48;;;;;;;9.75;5.90;;;;;;;9.73;36.55;98929.22;1221310;75;2917845;-67
2024/01/10 13:54:21;;;;;;;13.15;6.35;;;;;;;9.26;37.74;98938.09;1224127;75;2836775;-64
2024/01/10 13:56:54;;;;;;;10.20;7.20;;;;;;;8.30;38.68;98936.00;1223232;75;2916921;-64
2024/01/10 13:59:29;;;;;;;11.05;6.70;;;;;;;7.20;41.12;98937.34;1223531;75;2923066;-64
2024/01/10 14:02:02;;;;;;;15.75;8.85;;;;;;;4.25;47.25;98942.84;1220299;75;3068041;-68
2024/01/10 14:04:36;;;;;;;10.60;7.25;;;;;;;4.19;48.26;98937.09;1223026;75;2946256;-65
2024/01/10 14:07:09;;;;;;;10.70;7.25;;;;;;;4.18;48.47;98938.25;1221364;75;2947267;-65
2024/01/10 14:09:42;;;;;;;10.60;7.30;;;;;;;4.12;49.58;98942.59;1222671;75;2935193;-66